createdAt,value
2022-09-13T00:00:11.908Z,0.00
2022-09-13T00:01:12.192Z,0.00
2022-09-13T00:02:12.311Z,0.00
2022-09-13T00:03:12.448Z,0.00
2022-09-13T00:04:12.618Z,0.00
2022-09-13T00:05:12.790Z,0.00
2022-09-13T00:06:12.950Z,0.00
2022-09-13T00:07:13.142Z,0.00
2022-09-13T00:08:13.288Z,0.00
2022-09-13T00:09:13.508Z,0.00
2022-09-13T00:10:13.659Z,0.00
2022-09-13T00:11:13.856Z,0.00
2022-09-13T00:12:14.029Z,0.00
2022-09-13T00:13:14.198Z,0.00
2022-09-13T00:14:14.382Z,0.00
2022-09-13T00:15:14.538Z,0.00
2022-09-13T00:16:14.723Z,0.00
2022-09-13T00:17:14.880Z,0.00
2022-09-13T00:18:15.038Z,0.00
2022-09-13T00:19:15.218Z,0.00
2022-09-13T00:20:15.369Z,0.00
2022-09-13T00:21:15.529Z,0.00
2022-09-13T00:22:15.689Z,0.00
2022-09-13T00:23:15.855Z,0.00
2022-09-13T00:24:16.028Z,0.00
2022-09-13T00:25:16.189Z,0.00
2022-09-13T00:26:16.347Z,0.00
2022-09-13T00:27:16.514Z,0.00
2022-09-13T00:28:16.672Z,0.00
2022-09-13T00:29:16.832Z,0.00
2022-09-13T00:30:16.990Z,0.00
2022-09-13T00:31:17.178Z,0.00
2022-09-13T00:32:17.308Z,0.00
2022-09-13T00:33:17.499Z,0.00
2022-09-13T00:34:17.658Z,0.00
2022-09-13T00:35:17.819Z,0.00
2022-09-13T00:36:17.978Z,0.00
2022-09-13T00:37:18.139Z,0.00
2022-09-13T00:38:18.320Z,0.00
2022-09-13T00:39:18.481Z,0.00
2022-09-13T00:40:18.693Z,0.00
2022-09-13T00:41:18.819Z,0.00
2022-09-13T00:42:18.983Z,0.00
2022-09-13T00:43:19.167Z,0.00
2022-09-13T00:44:19.325Z,0.00
2022-09-13T00:45:19.480Z,0.00
2022-09-13T00:46:19.639Z,0.00
2022-09-13T00:47:19.828Z,0.00
2022-09-13T00:48:20.020Z,0.00
2022-09-13T00:49:20.190Z,0.00
2022-09-13T00:50:20.338Z,0.00
2022-09-13T00:51:20.500Z,0.00
2022-09-13T00:52:20.656Z,0.00
2022-09-13T00:53:20.878Z,0.00
2022-09-13T00:54:21.030Z,0.00
2022-09-13T00:55:21.220Z,0.00
2022-09-13T00:56:21.378Z,0.00
2022-09-13T00:57:21.583Z,0.00
2022-09-13T00:58:21.738Z,0.00
2022-09-13T00:59:21.897Z,0.00
2022-09-13T01:00:22.049Z,0.00
2022-09-13T01:01:22.294Z,0.00
2022-09-13T01:02:22.432Z,0.00
2022-09-13T01:03:22.568Z,0.00
2022-09-13T01:04:22.731Z,0.00
2022-09-13T01:05:22.928Z,0.00
2022-09-13T01:06:23.088Z,0.00
2022-09-13T01:07:23.267Z,0.00
2022-09-13T01:08:23.441Z,0.00
2022-09-13T01:09:23.600Z,0.00
2022-09-13T01:10:23.758Z,0.00
2022-09-13T01:11:23.917Z,0.00
2022-09-13T01:12:24.129Z,0.00
2022-09-13T01:13:24.288Z,0.00
2022-09-13T01:14:24.450Z,0.00
2022-09-13T01:15:24.611Z,0.00
2022-09-13T01:16:24.806Z,0.00
2022-09-13T01:17:24.968Z,0.00
2022-09-13T01:18:25.138Z,0.00
2022-09-13T01:19:25.302Z,0.00
2022-09-13T01:20:25.458Z,0.00
2022-09-13T01:21:25.630Z,0.00
2022-09-13T01:22:25.789Z,0.00
2022-09-13T01:23:25.961Z,0.00
2022-09-13T01:24:26.109Z,0.00
2022-09-13T01:25:26.308Z,0.00
2022-09-13T01:26:26.460Z,0.00
2022-09-13T01:27:26.679Z,0.00
2022-09-13T01:28:26.808Z,0.00
2022-09-13T01:29:26.998Z,0.00
2022-09-13T01:30:27.169Z,0.00
2022-09-13T01:31:27.405Z,0.00
2022-09-13T01:32:27.528Z,0.00
2022-09-13T01:33:27.700Z,0.00
2022-09-13T01:34:27.850Z,0.00
2022-09-13T01:35:28.048Z,0.00
2022-09-13T01:36:28.208Z,0.00
2022-09-13T01:37:28.407Z,0.00
2022-09-13T01:38:28.528Z,0.00
2022-09-13T01:39:28.719Z,0.00
2022-09-13T01:40:28.885Z,0.00
2022-09-13T01:41:29.049Z,0.00
2022-09-13T01:42:29.229Z,0.00
2022-09-13T01:43:29.389Z,0.00
2022-09-13T01:44:29.549Z,0.00
2022-09-13T01:45:29.788Z,0.00
2022-09-13T01:46:29.908Z,0.00
2022-09-13T01:47:30.088Z,0.00
2022-09-13T01:48:30.248Z,0.00
2022-09-13T01:49:30.438Z,0.00
2022-09-13T01:50:30.606Z,0.00
2022-09-13T01:51:30.779Z,0.00
2022-09-13T01:52:30.929Z,0.00
2022-09-13T01:53:31.129Z,0.00
2022-09-13T01:54:31.288Z,0.00
2022-09-13T01:55:31.449Z,0.00
2022-09-13T01:56:31.618Z,0.00
2022-09-13T01:57:31.785Z,0.00
2022-09-13T01:58:31.939Z,0.00
2022-09-13T01:59:32.143Z,0.00
2022-09-13T02:00:32.309Z,0.00
2022-09-13T02:01:32.516Z,0.00
2022-09-13T02:02:32.673Z,0.00
2022-09-13T02:03:32.798Z,0.00
2022-09-13T02:04:32.960Z,0.00
2022-09-13T02:05:33.140Z,0.00
2022-09-13T02:06:33.290Z,0.00
2022-09-13T02:07:33.478Z,0.00
2022-09-13T02:08:33.638Z,0.00
2022-09-13T02:09:33.847Z,0.00
2022-09-13T02:10:34.018Z,0.00
2022-09-13T02:11:34.179Z,0.00
2022-09-13T02:12:34.333Z,0.00
2022-09-13T02:13:34.527Z,0.00
2022-09-13T02:14:34.679Z,0.00
2022-09-13T02:15:34.897Z,0.00
2022-09-13T02:16:35.222Z,0.00
2022-09-13T02:17:35.218Z,0.00
2022-09-13T02:18:35.379Z,0.00
2022-09-13T02:19:35.538Z,0.00
2022-09-13T02:20:35.718Z,0.00
2022-09-13T02:21:35.878Z,0.00
2022-09-13T02:22:36.033Z,0.00
2022-09-13T02:23:36.219Z,0.00
2022-09-13T02:24:36.378Z,0.00
2022-09-13T02:25:36.588Z,0.00
2022-09-13T02:26:36.757Z,0.00
2022-09-13T02:27:36.928Z,0.00
2022-09-13T02:28:37.089Z,0.00
2022-09-13T02:29:37.309Z,0.00
2022-09-13T02:30:37.459Z,0.00
2022-09-13T02:31:37.713Z,0.00
2022-09-13T02:32:37.820Z,0.00
2022-09-13T02:33:38.079Z,0.00
2022-09-13T02:34:38.209Z,0.00
2022-09-13T02:35:38.369Z,0.00
2022-09-13T02:36:38.529Z,0.00
2022-09-13T02:37:38.689Z,0.00
2022-09-13T02:38:38.848Z,0.00
2022-09-13T02:39:39.233Z,0.00
2022-09-13T02:40:39.189Z,0.00
2022-09-13T02:41:39.350Z,0.00
2022-09-13T02:42:39.509Z,0.00
2022-09-13T02:43:39.669Z,0.00
2022-09-13T02:44:39.840Z,0.00
2022-09-13T02:45:40.021Z,0.00
2022-09-13T02:46:40.188Z,0.00
2022-09-13T02:47:40.380Z,0.00
2022-09-13T02:48:40.539Z,0.00
2022-09-13T02:49:40.761Z,0.00
2022-09-13T02:50:40.917Z,0.00
2022-09-13T02:51:41.128Z,0.00
2022-09-13T02:52:41.278Z,0.00
2022-09-13T02:53:41.468Z,0.00
2022-09-13T02:54:41.650Z,0.00
2022-09-13T02:55:41.808Z,0.00
2022-09-13T02:56:41.965Z,0.00
2022-09-13T02:57:42.159Z,0.00
2022-09-13T02:58:42.398Z,0.00
2022-09-13T02:59:42.499Z,0.00
2022-09-13T03:00:42.661Z,0.00
2022-09-13T03:01:42.819Z,0.00
2022-09-13T03:02:42.979Z,0.00
2022-09-13T03:03:43.178Z,0.00
2022-09-13T03:04:43.350Z,0.00
2022-09-13T03:05:43.519Z,0.00
2022-09-13T03:06:43.668Z,0.00
2022-09-13T03:07:43.859Z,0.00
2022-09-13T03:08:44.019Z,0.00
2022-09-13T03:09:44.219Z,0.00
2022-09-13T03:10:44.338Z,0.00
2022-09-13T03:11:44.499Z,0.00
2022-09-13T03:12:44.658Z,0.00
2022-09-13T03:13:44.840Z,0.00
2022-09-13T03:14:45.018Z,0.00
2022-09-13T03:15:45.179Z,0.00
2022-09-13T03:16:45.382Z,0.00
2022-09-13T03:17:45.550Z,0.00
2022-09-13T03:18:45.697Z,0.00
2022-09-13T03:19:45.889Z,0.00
2022-09-13T03:20:46.048Z,0.00
2022-09-13T03:21:46.248Z,0.00
2022-09-13T03:22:46.408Z,0.00
2022-09-13T03:23:46.599Z,0.00
2022-09-13T03:24:46.780Z,0.00
2022-09-13T03:25:46.942Z,0.00
2022-09-13T03:26:47.103Z,0.00
2022-09-13T03:27:47.288Z,0.00
2022-09-13T03:28:47.461Z,0.00
2022-09-13T03:29:47.651Z,0.00
2022-09-13T03:30:47.809Z,0.00
2022-09-13T03:31:48.028Z,0.00
2022-09-13T03:32:48.191Z,0.00
2022-09-13T03:33:48.390Z,0.00
2022-09-13T03:34:48.558Z,0.00
2022-09-13T03:35:48.719Z,0.00
2022-09-13T03:36:48.868Z,0.00
2022-09-13T03:37:49.070Z,0.00
2022-09-13T03:38:49.319Z,0.00
2022-09-13T03:39:49.457Z,0.00
2022-09-13T03:40:49.549Z,0.00
2022-09-13T03:41:49.708Z,0.00
2022-09-13T03:42:49.868Z,0.00
2022-09-13T03:43:50.060Z,0.00
2022-09-13T03:44:50.238Z,0.00
2022-09-13T03:45:50.472Z,0.00
2022-09-13T03:46:50.580Z,0.00
2022-09-13T03:47:50.769Z,0.00
2022-09-13T03:48:50.929Z,0.00
2022-09-13T03:49:51.198Z,0.00
2022-09-13T03:50:51.332Z,0.00
2022-09-13T03:51:51.488Z,0.00
2022-09-13T03:52:51.650Z,0.00
2022-09-13T03:53:51.839Z,0.00
2022-09-13T03:54:52.040Z,0.00
2022-09-13T03:55:52.167Z,0.00
2022-09-13T03:56:52.330Z,0.00
2022-09-13T03:57:52.508Z,0.00
2022-09-13T03:58:52.679Z,0.00
2022-09-13T03:59:52.849Z,0.00
2022-09-13T04:00:53.069Z,0.00
2022-09-13T04:01:53.193Z,0.00
2022-09-13T04:02:53.368Z,0.00
2022-09-13T04:03:56.780Z,0.00
2022-09-13T04:04:53.702Z,0.00
2022-09-13T04:05:53.866Z,0.00
2022-09-13T04:06:54.030Z,0.00
2022-09-13T04:07:54.189Z,0.00
2022-09-13T04:08:54.379Z,4.00
2022-09-13T04:09:54.507Z,4.00
2022-09-13T04:10:54.668Z,4.00
2022-09-13T04:11:54.938Z,4.00
2022-09-13T04:12:55.046Z,4.00
2022-09-13T04:13:55.219Z,8.00
2022-09-13T04:14:55.378Z,4.00
2022-09-13T04:15:55.541Z,4.00
2022-09-13T04:16:55.709Z,12.00
2022-09-13T04:17:55.869Z,12.00
2022-09-13T04:18:56.079Z,8.00
2022-09-13T04:19:56.246Z,12.00
2022-09-13T04:20:56.407Z,12.00
2022-09-13T04:21:56.578Z,20.00
2022-09-13T04:22:56.777Z,20.00
2022-09-13T04:23:56.929Z,24.00
2022-09-13T04:25:01.516Z,28.00
2022-09-13T04:25:58.289Z,32.00
2022-09-13T04:26:57.459Z,36.00
2022-09-13T04:27:57.622Z,44.00
2022-09-13T04:28:57.820Z,48.00
2022-09-13T04:29:57.969Z,52.00
2022-09-13T04:30:58.152Z,52.00
2022-09-13T04:31:58.434Z,52.00
2022-09-13T04:32:58.491Z,56.00
2022-09-13T04:33:58.719Z,64.00
2022-09-13T04:34:58.870Z,68.00
2022-09-13T04:35:59.199Z,76.00
2022-09-13T04:36:59.242Z,80.00
2022-09-13T04:37:59.419Z,84.00
2022-09-13T04:38:59.620Z,84.00
2022-09-13T04:39:59.818Z,84.00
2022-09-13T04:40:59.939Z,92.00
2022-09-13T04:42:00.119Z,100.00
2022-09-13T04:43:00.288Z,108.00
2022-09-13T04:44:00.459Z,112.00
2022-09-13T04:45:00.630Z,132.00
2022-09-13T04:46:00.821Z,144.00
2022-09-13T04:47:00.991Z,156.00
2022-09-13T04:48:01.170Z,172.00
2022-09-13T04:49:01.378Z,196.00
2022-09-13T04:50:01.550Z,228.00
2022-09-13T04:51:01.701Z,260.00
2022-09-13T04:52:01.848Z,288.00
2022-09-13T04:53:02.062Z,312.00
2022-09-13T04:54:02.222Z,360.00
2022-09-13T04:55:02.358Z,420.00
2022-09-13T04:56:02.558Z,456.00
2022-09-13T04:57:02.739Z,460.00
2022-09-13T04:58:02.928Z,456.00
2022-09-13T04:59:03.132Z,456.00
2022-09-13T05:00:03.269Z,480.00
2022-09-13T05:01:03.522Z,512.00
2022-09-13T05:02:03.641Z,532.00
2022-09-13T05:03:03.797Z,544.00
2022-09-13T05:04:03.988Z,576.00
2022-09-13T05:05:04.169Z,628.00
2022-09-13T05:06:04.360Z,712.00
2022-09-13T05:07:04.548Z,812.00
2022-09-13T05:08:04.730Z,900.00
2022-09-13T05:09:04.945Z,976.00
2022-09-13T05:10:05.059Z,1060.00
2022-09-13T05:11:05.263Z,1152.00
2022-09-13T05:12:05.436Z,1248.00
2022-09-13T05:13:05.597Z,1328.00
2022-09-13T05:14:05.889Z,1348.00
2022-09-13T05:15:05.929Z,1324.00
2022-09-13T05:16:06.127Z,1304.00
2022-09-13T05:17:06.269Z,1304.00
2022-09-13T05:18:06.429Z,1300.00
2022-09-13T05:19:06.609Z,1284.00
2022-09-13T05:20:07.733Z,1292.00
2022-09-13T05:21:06.939Z,1300.00
2022-09-13T05:22:07.099Z,1224.00
2022-09-13T05:23:07.268Z,1056.00
2022-09-13T05:24:07.444Z,848.00
2022-09-13T05:25:07.589Z,672.00
2022-09-13T05:26:07.779Z,568.00
2022-09-13T05:27:07.959Z,512.00
2022-09-13T05:28:08.168Z,460.00
2022-09-13T05:29:08.328Z,388.00
2022-09-13T05:30:08.472Z,312.00
2022-09-13T05:31:08.775Z,248.00
2022-09-13T05:32:08.849Z,208.00
2022-09-13T05:33:09.073Z,184.00
2022-09-13T05:34:09.239Z,176.00
2022-09-13T05:35:09.382Z,176.00
2022-09-13T05:36:09.612Z,172.00
2022-09-13T05:37:09.759Z,176.00
2022-09-13T05:38:09.961Z,188.00
2022-09-13T05:39:30.296Z,228.00
2022-09-13T05:40:12.579Z,300.00
2022-09-13T05:41:10.512Z,368.00
2022-09-13T05:42:10.650Z,408.00
2022-09-13T05:43:10.839Z,416.00
2022-09-13T05:44:13.616Z,480.00
2022-09-13T05:45:11.180Z,556.00
2022-09-13T05:46:11.356Z,616.00
2022-09-13T05:47:11.537Z,684.00
2022-09-13T05:48:11.710Z,736.00
2022-09-13T05:49:11.942Z,776.00
2022-09-13T05:50:27.250Z,812.00
2022-09-13T05:51:13.232Z,876.00
2022-09-13T05:52:12.421Z,900.00
2022-09-13T05:53:12.599Z,916.00
2022-09-13T05:54:12.825Z,928.00
2022-09-13T05:55:12.980Z,920.00
2022-09-13T05:56:16.480Z,972.00
2022-09-13T05:57:13.302Z,1040.00
2022-09-13T05:58:13.460Z,1060.00
2022-09-13T05:59:13.640Z,1052.00
2022-09-13T06:00:13.792Z,1032.00
2022-09-13T06:01:13.950Z,1004.00
2022-09-13T06:02:14.235Z,940.00
2022-09-13T06:03:14.331Z,900.00
2022-09-13T06:04:14.539Z,912.00
2022-09-13T06:05:14.683Z,896.00
2022-09-13T06:06:14.860Z,872.00
2022-09-13T06:07:15.040Z,856.00
2022-09-13T06:08:15.190Z,860.00
2022-09-13T06:09:15.398Z,904.00
2022-09-13T06:10:15.531Z,960.00
2022-09-13T06:11:15.712Z,956.00
2022-09-13T06:12:15.900Z,968.00
2022-09-13T06:13:16.091Z,1012.00
2022-09-13T06:14:16.260Z,1024.00
2022-09-13T06:15:16.411Z,992.00
2022-09-13T06:16:16.653Z,932.00
2022-09-13T06:17:16.732Z,812.00
2022-09-13T06:18:16.945Z,652.00
2022-09-13T06:19:17.102Z,516.00
2022-09-13T06:20:17.243Z,472.00
2022-09-13T06:21:17.433Z,468.00
2022-09-13T06:22:17.581Z,488.00
2022-09-13T06:23:17.785Z,508.00
2022-09-13T06:24:17.961Z,580.00
2022-09-13T06:25:18.160Z,768.00
2022-09-13T06:26:18.290Z,1036.00
2022-09-13T06:27:18.462Z,1332.00
2022-09-13T06:28:20.722Z,1600.00
2022-09-13T06:29:18.830Z,1704.00
2022-09-13T06:30:19.001Z,1692.00
2022-09-13T06:31:19.223Z,1520.00
2022-09-13T06:32:19.341Z,1244.00
2022-09-13T06:33:19.501Z,1032.00
2022-09-13T06:34:19.682Z,908.00
2022-09-13T06:35:19.829Z,860.00
2022-09-13T06:36:19.982Z,872.00
2022-09-13T06:37:20.167Z,936.00
2022-09-13T06:38:20.312Z,1048.00
2022-09-13T06:39:20.502Z,1292.00
2022-09-13T06:40:24.930Z,1632.00
2022-09-13T06:41:20.791Z,2088.00
2022-09-13T06:42:20.971Z,2592.00
2022-09-13T06:43:21.158Z,3036.00
2022-09-13T06:44:21.351Z,3240.00
2022-09-13T06:45:21.530Z,3128.00
2022-09-13T06:46:25.217Z,3036.00
2022-09-13T06:47:21.875Z,3216.00
2022-09-13T06:48:22.077Z,3532.00
2022-09-13T06:49:22.267Z,3856.00
2022-09-13T06:50:22.410Z,3764.00
2022-09-13T06:51:22.587Z,3392.00
2022-09-13T06:52:22.763Z,3212.00
2022-09-13T06:53:22.954Z,3340.00
2022-09-13T06:54:23.151Z,3528.00
2022-09-13T06:55:23.313Z,3832.00
2022-09-13T06:56:23.485Z,4176.00
2022-09-13T06:57:23.663Z,4360.00
2022-09-13T06:58:23.858Z,4608.00
2022-09-13T06:59:24.033Z,4788.00
2022-09-13T07:00:24.196Z,4828.00
2022-09-13T07:01:24.513Z,4544.00
2022-09-13T07:02:24.628Z,4156.00
2022-09-13T07:03:24.730Z,4052.00
2022-09-13T07:04:24.912Z,4296.00
2022-09-13T07:05:25.102Z,4808.00
2022-09-13T07:06:25.283Z,5248.00
2022-09-13T07:07:25.484Z,5236.00
2022-09-13T07:08:25.623Z,5184.00
2022-09-13T07:09:25.823Z,4880.00
2022-09-13T07:10:25.992Z,4492.00
2022-09-13T07:11:26.183Z,4168.00
2022-09-13T07:12:26.333Z,4668.00
2022-09-13T07:13:26.514Z,5192.00
2022-09-13T07:14:26.704Z,5580.00
2022-09-13T07:15:26.854Z,5820.00
2022-09-13T07:16:27.046Z,5792.00
2022-09-13T07:17:31.207Z,5636.00
2022-09-13T07:18:27.377Z,5552.00
2022-09-13T07:19:27.574Z,5636.00
2022-09-13T07:20:27.734Z,5836.00
2022-09-13T07:21:27.914Z,6120.00
2022-09-13T07:22:28.068Z,6368.00
2022-09-13T07:23:28.259Z,6388.00
2022-09-13T07:24:28.445Z,6172.00
2022-09-13T07:25:28.595Z,6384.00
2022-09-13T07:26:28.775Z,6504.00
2022-09-13T07:27:28.945Z,6408.00
2022-09-13T07:28:33.402Z,6280.00
2022-09-13T07:29:30.304Z,6208.00
2022-09-13T07:30:29.455Z,6192.00
2022-09-13T07:31:29.682Z,6112.00
2022-09-13T07:32:29.806Z,5936.00
2022-09-13T07:33:29.986Z,5804.00
2022-09-13T07:34:30.235Z,5684.00
2022-09-13T07:35:30.346Z,5504.00
2022-09-13T07:36:30.522Z,5304.00
2022-09-13T07:37:30.706Z,5160.00
2022-09-13T07:38:30.885Z,5056.00
2022-09-13T07:39:31.085Z,5088.00
2022-09-13T07:40:31.255Z,5176.00
2022-09-13T07:41:31.442Z,5380.00
2022-09-13T07:42:31.615Z,5740.00
2022-09-13T07:43:31.798Z,5968.00
2022-09-13T07:44:31.993Z,6116.00
2022-09-13T07:45:32.139Z,6312.00
2022-09-13T07:46:32.469Z,6492.00
2022-09-13T07:47:32.485Z,6828.00
2022-09-13T07:48:33.674Z,7124.00
2022-09-13T07:49:32.876Z,6952.00
2022-09-13T07:50:33.007Z,6656.00
2022-09-13T07:51:33.196Z,6232.00
2022-09-13T07:52:33.387Z,5912.00
2022-09-13T07:53:33.577Z,5824.00
2022-09-13T07:54:33.766Z,5812.00
2022-09-13T07:55:33.917Z,5924.00
2022-09-13T07:56:34.098Z,6068.00
2022-09-13T07:57:34.277Z,6016.00
2022-09-13T07:58:34.459Z,5808.00
2022-09-13T07:59:34.658Z,5612.00
2022-09-13T08:00:34.797Z,5480.00
2022-09-13T08:01:35.042Z,5560.00
2022-09-13T08:02:35.223Z,5788.00
2022-09-13T08:03:35.318Z,6004.00
2022-09-13T08:04:36.550Z,6304.00
2022-09-13T08:05:35.672Z,6336.00
2022-09-13T08:06:35.890Z,6180.00
2022-09-13T08:07:36.027Z,6236.00
2022-09-13T08:08:36.215Z,6324.00
2022-09-13T08:09:36.408Z,6236.00
2022-09-13T08:10:36.547Z,6340.00
2022-09-13T08:11:36.747Z,6796.00
2022-09-13T08:12:36.917Z,7168.00
2022-09-13T08:13:37.105Z,7192.00
2022-09-13T08:14:37.309Z,7212.00
2022-09-13T08:15:37.482Z,7316.00
2022-09-13T08:16:37.632Z,7408.00
2022-09-13T08:17:37.798Z,7152.00
2022-09-13T08:18:37.999Z,6600.00
2022-09-13T08:19:38.178Z,5988.00
2022-09-13T08:20:38.360Z,5592.00
2022-09-13T08:21:38.538Z,5540.00
2022-09-13T08:22:38.719Z,5884.00
2022-09-13T08:23:38.899Z,6424.00
2022-09-13T08:24:39.133Z,6856.00
2022-09-13T08:25:39.269Z,7160.00
2022-09-13T08:26:39.449Z,7480.00
2022-09-13T08:27:39.634Z,7764.00
2022-09-13T08:28:39.819Z,8188.00
2022-09-13T08:29:40.039Z,8480.00
2022-09-13T08:30:40.249Z,8896.00
2022-09-13T08:31:40.359Z,10192.00
2022-09-13T08:32:40.529Z,12140.00
2022-09-13T08:33:45.534Z,13684.00
2022-09-13T08:34:41.939Z,17664.00
2022-09-13T08:35:41.039Z,16104.00
2022-09-13T08:36:41.220Z,13684.00
2022-09-13T08:37:41.393Z,12980.00
2022-09-13T08:38:41.570Z,13900.00
2022-09-13T08:39:41.767Z,15596.00
2022-09-13T08:40:41.903Z,16312.00
2022-09-13T08:41:42.180Z,16040.00
2022-09-13T08:42:42.261Z,16028.00
2022-09-13T08:43:42.478Z,15076.00
2022-09-13T08:44:42.641Z,15496.00
2022-09-13T08:45:42.820Z,17408.00
2022-09-13T08:46:43.018Z,15792.00
2022-09-13T08:47:43.195Z,15660.00
2022-09-13T08:48:43.392Z,15276.00
2022-09-13T08:49:43.547Z,15184.00
2022-09-13T08:50:43.715Z,15960.00
2022-09-13T08:51:43.882Z,15220.00
2022-09-13T08:52:44.095Z,15232.00
2022-09-13T08:53:44.242Z,16072.00
2022-09-13T08:54:44.423Z,17568.00
2022-09-13T08:55:44.622Z,18592.00
2022-09-13T08:56:44.783Z,21344.00
2022-09-13T08:57:44.953Z,25856.00
2022-09-13T08:58:45.182Z,17344.00
2022-09-13T08:59:45.326Z,18112.00
2022-09-13T09:00:45.503Z,17760.00
2022-09-13T09:01:45.725Z,16560.00
2022-09-13T09:02:45.880Z,18944.00
2022-09-13T09:03:46.026Z,19360.00
2022-09-13T09:04:46.175Z,19296.00
2022-09-13T09:05:46.335Z,20448.00
2022-09-13T09:06:46.547Z,15688.00
2022-09-13T09:07:46.716Z,14904.00
2022-09-13T09:08:46.897Z,17696.00
2022-09-13T09:09:47.037Z,22464.00
2022-09-13T09:10:47.224Z,25024.00
2022-09-13T09:11:47.409Z,22784.00
2022-09-13T09:12:47.565Z,20096.00
2022-09-13T09:13:47.763Z,24224.00
2022-09-13T09:14:47.945Z,19552.00
2022-09-13T09:15:48.155Z,15720.00
2022-09-13T09:16:48.338Z,16632.00
2022-09-13T09:17:48.476Z,15700.00
2022-09-13T09:18:48.706Z,16528.00
2022-09-13T09:19:48.816Z,15192.00
2022-09-13T09:20:49.010Z,27200.00
2022-09-13T09:21:49.187Z,20800.00
2022-09-13T09:22:49.375Z,19488.00
2022-09-13T09:23:49.665Z,27072.00
2022-09-13T09:24:49.711Z,18400.00
2022-09-13T09:25:49.899Z,18464.00
2022-09-13T09:26:50.078Z,19552.00
2022-09-13T09:27:50.258Z,18432.00
2022-09-13T09:28:50.454Z,20864.00
2022-09-13T09:29:50.619Z,21184.00
2022-09-13T09:30:50.858Z,35584.00
2022-09-13T09:31:50.988Z,18208.00
2022-09-13T09:32:51.185Z,14736.00
2022-09-13T09:33:51.342Z,11844.00
2022-09-13T09:34:51.502Z,12164.00
2022-09-13T09:35:51.667Z,13196.00
2022-09-13T09:36:51.835Z,12232.00
2022-09-13T09:37:52.002Z,11216.00
2022-09-13T09:38:52.180Z,13244.00
2022-09-13T09:39:52.397Z,12484.00
2022-09-13T09:40:52.501Z,12620.00
2022-09-13T09:41:52.690Z,12044.00
2022-09-13T09:42:52.841Z,17216.00
2022-09-13T09:43:53.041Z,20640.00
2022-09-13T09:44:53.213Z,17760.00
2022-09-13T09:45:53.426Z,15744.00
2022-09-13T09:46:53.561Z,12896.00
2022-09-13T09:47:53.718Z,14972.00
2022-09-13T09:48:53.926Z,18240.00
2022-09-13T09:49:54.082Z,16016.00
2022-09-13T09:50:54.262Z,15576.00
2022-09-13T09:51:54.424Z,16364.00
2022-09-13T09:52:54.623Z,18304.00
2022-09-13T09:53:54.795Z,22784.00
2022-09-13T09:54:54.956Z,22048.00
2022-09-13T09:55:55.123Z,21696.00
2022-09-13T09:56:55.321Z,19904.00
2022-09-13T09:57:55.496Z,18080.00
2022-09-13T09:58:55.706Z,19648.00
2022-09-13T09:59:55.828Z,25088.00
2022-09-13T10:00:56.020Z,29568.00
2022-09-13T10:01:56.319Z,40768.00
2022-09-13T10:02:56.366Z,34176.00
2022-09-13T10:03:56.586Z,28128.00
2022-09-13T10:04:56.736Z,21312.00
2022-09-13T10:05:56.902Z,21696.00
2022-09-13T10:06:57.086Z,23008.00
2022-09-13T10:07:57.257Z,20768.00
2022-09-13T10:08:57.483Z,18976.00
2022-09-13T10:09:57.630Z,20576.00
2022-09-13T10:10:57.807Z,22592.00
2022-09-13T10:11:57.994Z,18464.00
2022-09-13T10:12:58.157Z,17184.00
2022-09-13T10:13:58.347Z,16444.00
2022-09-13T10:14:58.498Z,14708.00
2022-09-13T10:15:58.679Z,15724.00
2022-09-13T10:16:58.918Z,16076.00
2022-09-13T10:17:59.020Z,14968.00
2022-09-13T10:18:59.218Z,15076.00
2022-09-13T10:19:59.379Z,15240.00
2022-09-13T10:20:59.536Z,15748.00
2022-09-13T10:21:59.719Z,15968.00
2022-09-13T10:22:59.889Z,15940.00
2022-09-13T10:24:00.100Z,15004.00
2022-09-13T10:25:00.239Z,14016.00
2022-09-13T10:26:00.409Z,13336.00
2022-09-13T10:27:00.583Z,12868.00
2022-09-13T10:28:00.749Z,12116.00
2022-09-13T10:29:00.942Z,11040.00
2022-09-13T10:30:01.099Z,9708.00
2022-09-13T10:31:01.352Z,9844.00
2022-09-13T10:32:01.471Z,11020.00
2022-09-13T10:33:01.638Z,12940.00
2022-09-13T10:34:01.821Z,13144.00
2022-09-13T10:35:01.999Z,13252.00
2022-09-13T10:36:02.143Z,14204.00
2022-09-13T10:37:02.320Z,13096.00
2022-09-13T10:38:02.489Z,10352.00
2022-09-13T10:39:02.662Z,9296.00
2022-09-13T10:40:02.854Z,8228.00
2022-09-13T10:41:02.998Z,8660.00
2022-09-13T10:42:03.184Z,9836.00
2022-09-13T10:43:03.360Z,9836.00
2022-09-13T10:44:06.576Z,10024.00
2022-09-13T10:45:04.708Z,7668.00
2022-09-13T10:46:03.914Z,5368.00
2022-09-13T10:47:04.053Z,4188.00
2022-09-13T10:48:04.193Z,3052.00
2022-09-13T10:49:04.393Z,2508.00
2022-09-13T10:50:04.533Z,2480.00
2022-09-13T10:51:04.718Z,2540.00
2022-09-13T10:52:04.894Z,2432.00
2022-09-13T10:53:05.092Z,2056.00
2022-09-13T10:54:05.235Z,1864.00
2022-09-13T10:55:05.414Z,2236.00
2022-09-13T10:56:05.602Z,2988.00
2022-09-13T10:57:05.783Z,4744.00
2022-09-13T10:58:05.978Z,4712.00
2022-09-13T10:59:06.145Z,3996.00
2022-09-13T11:00:06.325Z,2792.00
2022-09-13T11:01:06.551Z,2372.00
2022-09-13T11:02:06.665Z,2780.00
2022-09-13T11:03:06.864Z,4336.00
2022-09-13T11:04:07.043Z,5584.00
2022-09-13T11:05:07.179Z,5172.00
2022-09-13T11:06:07.357Z,4516.00
2022-09-13T11:07:07.537Z,5028.00
2022-09-13T11:08:07.727Z,6816.00
2022-09-13T11:09:07.876Z,6104.00
2022-09-13T11:10:08.057Z,5600.00
2022-09-13T11:11:08.237Z,4356.00
2022-09-13T11:12:08.428Z,3840.00
2022-09-13T11:13:08.628Z,3668.00
2022-09-13T11:14:08.788Z,3420.00
2022-09-13T11:15:08.971Z,2896.00
2022-09-13T11:16:09.187Z,2732.00
2022-09-13T11:17:09.338Z,2848.00
2022-09-13T11:18:09.498Z,3372.00
2022-09-13T11:19:09.647Z,3800.00
2022-09-13T11:20:09.951Z,4216.00
2022-09-13T11:21:09.998Z,4600.00
2022-09-13T11:22:10.179Z,4572.00
2022-09-13T11:23:10.379Z,4440.00
2022-09-13T11:24:10.528Z,4280.00
2022-09-13T11:25:10.739Z,4092.00
2022-09-13T11:26:10.877Z,3984.00
2022-09-13T11:27:11.059Z,3616.00
2022-09-13T11:28:11.259Z,3024.00
2022-09-13T11:29:11.429Z,2684.00
2022-09-13T11:30:11.613Z,2612.00
2022-09-13T11:31:11.798Z,2540.00
2022-09-13T11:32:11.970Z,2500.00
2022-09-13T11:33:12.170Z,2576.00
2022-09-13T11:34:12.309Z,2768.00
2022-09-13T11:35:12.514Z,3072.00
2022-09-13T11:36:12.695Z,3412.00
2022-09-13T11:37:12.860Z,4368.00
2022-09-13T11:38:13.051Z,4820.00
2022-09-13T11:39:13.230Z,3756.00
2022-09-13T11:40:13.439Z,3328.00
2022-09-13T11:41:13.560Z,3372.00
2022-09-13T11:42:13.740Z,3448.00
2022-09-13T11:43:13.941Z,3088.00
2022-09-13T11:44:14.081Z,2940.00
2022-09-13T11:45:18.108Z,2888.00
2022-09-13T11:46:15.466Z,2816.00
2022-09-13T11:47:14.608Z,2812.00
2022-09-13T11:48:14.812Z,3196.00
2022-09-13T11:49:15.003Z,3684.00
2022-09-13T11:50:15.103Z,3968.00
2022-09-13T11:51:15.295Z,4308.00
2022-09-13T11:52:15.472Z,4484.00
2022-09-13T11:53:15.664Z,4144.00
2022-09-13T11:54:15.802Z,4356.00
2022-09-13T11:55:15.991Z,5072.00
2022-09-13T11:56:16.163Z,5208.00
2022-09-13T11:57:16.343Z,4908.00
2022-09-13T11:58:16.541Z,5060.00
2022-09-13T11:59:16.720Z,6436.00
2022-09-13T12:00:16.893Z,7720.00
2022-09-13T12:01:17.092Z,8424.00
2022-09-13T12:02:17.337Z,7948.00
2022-09-13T12:03:17.544Z,6724.00
2022-09-13T12:04:17.624Z,6184.00
2022-09-13T12:05:22.446Z,5952.00
2022-09-13T12:06:18.962Z,5820.00
2022-09-13T12:07:18.152Z,5504.00
2022-09-13T12:08:18.344Z,5404.00
2022-09-13T12:09:18.494Z,5544.00
2022-09-13T12:10:18.673Z,4980.00
2022-09-13T12:11:18.854Z,5728.00
2022-09-13T12:12:19.034Z,6852.00
2022-09-13T12:13:19.234Z,6928.00
2022-09-13T12:14:19.377Z,6244.00
2022-09-13T12:15:19.583Z,6316.00
2022-09-13T12:16:19.741Z,6392.00
2022-09-13T12:17:19.904Z,6300.00
2022-09-13T12:18:20.104Z,6456.00
2022-09-13T12:19:20.245Z,6716.00
2022-09-13T12:20:20.425Z,6820.00
2022-09-13T12:21:20.605Z,6848.00
2022-09-13T12:22:20.785Z,7548.00
2022-09-13T12:23:20.978Z,8760.00
2022-09-13T12:24:21.116Z,8448.00
2022-09-13T12:25:21.306Z,8852.00
2022-09-13T12:26:21.489Z,9640.00
2022-09-13T12:27:21.667Z,9620.00
2022-09-13T12:28:21.908Z,10152.00
2022-09-13T12:29:22.039Z,10712.00
2022-09-13T12:30:22.211Z,10240.00
2022-09-13T12:31:22.413Z,10464.00